createdAt,value
2023-05-24T00:02:14.002Z,101762.78
2023-05-24T00:04:41.742Z,101755.63
2023-05-24T00:07:08.301Z,101744.44
2023-05-24T00:09:34.853Z,101752.28
2023-05-24T00:12:01.326Z,101761.28
2023-05-24T00:14:28.062Z,101751.25
2023-05-24T00:16:54.608Z,101759.91
2023-05-24T00:19:22.591Z,101760.84
2023-05-24T00:21:49.309Z,101762.22
2023-05-24T00:24:17.115Z,101758.72
2023-05-24T00:26:44.282Z,101763.88
2023-05-24T00:29:11.041Z,101765.00
2023-05-24T00:31:37.534Z,101771.72
2023-05-24T00:34:04.193Z,101762.50
2023-05-24T00:36:31.224Z,101755.09
2023-05-24T00:38:58.240Z,101753.97
2023-05-24T00:41:24.802Z,101753.16
2023-05-24T00:43:51.475Z,101770.03
2023-05-24T00:46:26.201Z,101761.13
2023-05-24T00:48:52.877Z,101749.81
2023-05-24T00:51:19.480Z,101756.78
2023-05-24T00:53:47.722Z,101750.00
2023-05-24T00:56:15.300Z,101752.25
2023-05-24T00:58:42.761Z,101759.50
2023-05-24T01:01:09.347Z,101755.28
2023-05-24T01:03:36.248Z,101756.69
2023-05-24T01:06:06.222Z,101754.38
2023-05-24T01:08:38.934Z,101757.28
2023-05-24T01:11:27.603Z,101765.09
2023-05-24T01:14:17.301Z,101766.09
2023-05-24T01:16:51.757Z,101759.50
2023-05-24T01:19:37.186Z,101760.75
2023-05-24T01:22:29.779Z,101759.53
2023-05-24T01:25:04.376Z,101753.78
2023-05-24T01:27:36.222Z,101748.22
2023-05-24T01:30:04.351Z,101757.13
2023-05-24T01:32:31.295Z,101756.44
2023-05-24T01:34:58.184Z,101753.78
2023-05-24T01:37:24.732Z,101760.59
2023-05-24T01:39:51.483Z,101760.19
2023-05-24T01:42:45.801Z,101759.09
2023-05-24T01:45:36.626Z,101754.31
2023-05-24T01:48:19.147Z,101750.16
2023-05-24T01:50:52.437Z,101745.16
2023-05-24T01:53:23.200Z,101745.97
2023-05-24T01:55:53.623Z,101747.75
2023-05-24T01:58:22.685Z,101744.56
2023-05-24T02:00:50.901Z,101737.31
2023-05-24T02:03:17.525Z,101737.84
2023-05-24T02:05:45.683Z,101731.72
2023-05-24T02:08:12.917Z,101708.84
2023-05-24T02:10:40.744Z,101723.66
2023-05-24T02:13:08.291Z,101702.41
2023-05-24T02:15:35.470Z,101718.34
2023-05-24T02:18:02.326Z,101707.28
2023-05-24T02:20:32.103Z,101713.63
2023-05-24T02:22:58.797Z,101707.47
2023-05-24T02:25:25.648Z,101706.63
2023-05-24T02:27:52.187Z,101713.84
2023-05-24T02:30:18.818Z,101720.41
2023-05-24T02:32:45.487Z,101718.88
2023-05-24T02:35:12.231Z,101718.34
2023-05-24T02:37:38.689Z,101715.41
2023-05-24T02:40:05.786Z,101721.41
2023-05-24T02:42:32.286Z,101727.94
2023-05-24T02:44:58.764Z,101726.97
2023-05-24T02:47:28.186Z,101723.75
2023-05-24T02:49:55.449Z,101738.69
2023-05-24T02:52:23.224Z,101741.75
2023-05-24T02:54:50.413Z,101731.72
2023-05-24T02:57:16.964Z,101741.78
2023-05-24T02:59:43.590Z,101728.97
2023-05-24T03:02:10.245Z,101734.53
2023-05-24T03:04:36.689Z,101727.00
2023-05-24T03:07:03.368Z,101730.47
2023-05-24T03:09:29.877Z,101726.41
2023-05-24T03:11:56.361Z,101733.69
2023-05-24T03:14:24.851Z,101728.22
2023-05-24T03:16:51.711Z,101726.13
2023-05-24T03:19:18.498Z,101720.25
2023-05-24T03:21:45.026Z,101715.34
2023-05-24T03:24:13.193Z,101714.09
2023-05-24T03:26:42.873Z,101707.44
2023-05-24T03:29:09.289Z,101704.66
2023-05-24T03:31:36.132Z,101706.47
2023-05-24T03:34:02.652Z,101695.75
2023-05-24T03:36:29.465Z,101696.84
2023-05-24T03:38:58.552Z,101713.28
2023-05-24T03:41:25.413Z,101710.50
2023-05-24T03:43:52.618Z,101710.38
2023-05-24T03:46:19.444Z,101711.78
2023-05-24T03:48:46.268Z,101712.81
2023-05-24T03:51:12.745Z,101715.13
2023-05-24T03:53:39.355Z,101712.63
2023-05-24T03:56:06.481Z,101723.66
2023-05-24T03:58:33.044Z,101714.19
2023-05-24T04:00:59.963Z,101726.56
2023-05-24T04:03:28.051Z,101733.97
2023-05-24T04:05:55.042Z,101729.63
2023-05-24T04:08:21.674Z,101735.19
2023-05-24T04:10:48.262Z,101726.63
2023-05-24T04:13:14.728Z,101735.53
2023-05-24T04:15:42.000Z,101734.13
2023-05-24T04:18:08.690Z,101723.50
2023-05-24T04:20:35.775Z,101734.97
2023-05-24T04:23:02.657Z,101727.13
2023-05-24T04:25:30.152Z,101726.38
2023-05-24T04:27:57.224Z,101725.66
2023-05-24T04:30:23.873Z,101727.31
2023-05-24T04:32:50.897Z,101714.34
2023-05-24T04:35:18.237Z,101724.38
2023-05-24T04:37:44.795Z,101733.16
2023-05-24T04:40:12.033Z,101723.03
2023-05-24T04:42:38.641Z,101725.66
2023-05-24T04:45:05.772Z,101728.00
2023-05-24T04:47:32.379Z,101728.53
2023-05-24T04:50:01.977Z,101712.75
2023-05-24T04:52:28.735Z,101731.50
2023-05-24T04:54:55.638Z,101713.38
2023-05-24T04:57:22.308Z,101736.16
2023-05-24T04:59:48.894Z,101729.41
2023-05-24T05:02:15.516Z,101730.47
2023-05-24T05:04:42.393Z,101720.19
2023-05-24T05:07:09.000Z,101733.25
2023-05-24T05:09:35.515Z,101738.41
2023-05-24T05:12:02.735Z,101691.84
2023-05-24T05:14:29.668Z,101694.78
2023-05-24T05:16:56.163Z,101720.38
2023-05-24T05:19:22.713Z,101685.66
2023-05-24T05:21:49.177Z,101733.66
2023-05-24T05:24:16.755Z,101733.34
2023-05-24T05:26:43.336Z,101718.22
2023-05-24T05:29:09.771Z,101717.56
2023-05-24T05:31:36.336Z,101708.59
2023-05-24T05:34:03.145Z,101724.66
2023-05-24T05:36:29.621Z,101727.84
2023-05-24T05:38:56.148Z,101713.53
2023-05-24T05:41:22.686Z,101715.94
2023-05-24T05:43:49.180Z,101712.31
2023-05-24T05:46:16.241Z,101728.72
2023-05-24T05:48:44.305Z,101719.06
2023-05-24T05:51:12.834Z,101723.91
2023-05-24T05:53:39.314Z,101725.09
2023-05-24T05:56:06.335Z,101696.88
2023-05-24T05:58:32.971Z,101720.41
2023-05-24T06:00:59.581Z,101710.91
2023-05-24T06:03:26.357Z,101720.97
2023-05-24T06:05:53.074Z,101728.78
2023-05-24T06:08:19.551Z,101730.28
2023-05-24T06:10:46.036Z,101728.66
2023-05-24T06:13:13.459Z,101728.69
2023-05-24T06:15:40.757Z,101730.03
2023-05-24T06:18:07.260Z,101724.19
2023-05-24T06:20:33.804Z,101722.88
2023-05-24T06:23:00.382Z,101718.03
2023-05-24T06:25:30.746Z,101740.41
2023-05-24T06:27:57.362Z,101725.41
2023-05-24T06:30:24.038Z,101737.72
2023-05-24T06:32:50.810Z,101739.25
2023-05-24T06:35:17.353Z,101717.56
2023-05-24T06:37:44.633Z,101706.72
2023-05-24T06:40:11.889Z,101724.41
2023-05-24T06:42:39.733Z,101720.53
2023-05-24T06:45:08.441Z,101737.72
2023-05-24T06:47:36.074Z,101733.38
2023-05-24T06:50:04.557Z,101695.84
2023-05-24T06:52:31.317Z,101738.56
2023-05-24T06:54:57.789Z,101725.53
2023-05-24T06:57:26.961Z,101727.53
2023-05-24T06:59:53.500Z,101714.19
2023-05-24T07:02:24.178Z,101737.38
2023-05-24T07:04:50.708Z,101714.69
2023-05-24T07:07:17.234Z,101726.66
2023-05-24T07:09:44.433Z,101739.63
2023-05-24T07:12:11.048Z,101739.41
2023-05-24T07:14:37.557Z,101720.75
2023-05-24T07:17:04.624Z,101717.69
2023-05-24T07:19:31.197Z,101721.56
2023-05-24T07:21:57.908Z,101692.47
2023-05-24T07:24:24.935Z,101719.81
2023-05-24T07:26:53.527Z,101737.28
2023-05-24T07:29:21.494Z,101728.72
2023-05-24T07:31:48.512Z,101724.84
2023-05-24T07:34:17.749Z,101726.44
2023-05-24T07:36:44.217Z,101739.19
2023-05-24T07:39:10.976Z,101719.38
2023-05-24T07:41:37.626Z,101713.91
2023-05-24T07:44:04.334Z,101705.56
2023-05-24T07:46:34.022Z,101738.94
2023-05-24T07:49:03.074Z,101745.91
2023-05-24T07:51:29.596Z,101730.25
2023-05-24T07:53:56.407Z,101729.28
2023-05-24T07:56:25.246Z,101732.53
2023-05-24T07:58:56.850Z,101701.97
2023-05-24T08:01:25.555Z,101728.47
2023-05-24T08:03:53.036Z,101748.16
2023-05-24T08:06:22.327Z,101724.69
2023-05-24T08:08:48.923Z,101731.94
2023-05-24T08:11:15.596Z,101743.03
2023-05-24T08:13:42.025Z,101721.34
2023-05-24T08:16:10.086Z,101740.13
2023-05-24T08:18:36.737Z,101716.16
2023-05-24T08:21:03.778Z,101722.84
2023-05-24T08:23:30.702Z,101722.84
2023-05-24T08:26:04.643Z,101725.44
2023-05-24T08:28:31.263Z,101733.19
2023-05-24T08:31:00.177Z,101682.53
2023-05-24T08:33:26.756Z,101722.25
2023-05-24T08:35:53.315Z,101724.13
2023-05-24T08:38:19.876Z,101697.06
2023-05-24T08:40:47.890Z,101711.84
2023-05-24T08:43:14.983Z,101727.66
2023-05-24T08:45:43.157Z,101699.06
2023-05-24T08:48:10.098Z,101727.41
2023-05-24T08:50:36.902Z,101725.53
2023-05-24T08:53:07.021Z,101704.06
2023-05-24T08:55:33.724Z,101725.63
2023-05-24T08:58:00.783Z,101725.78
2023-05-24T09:00:27.565Z,101732.91
2023-05-24T09:02:54.411Z,101714.75
2023-05-24T09:05:24.023Z,101724.22
2023-05-24T09:07:53.490Z,101699.19
2023-05-24T09:10:21.817Z,101724.63
2023-05-24T09:12:55.066Z,101728.31
2023-05-24T09:15:21.598Z,101725.16
2023-05-24T09:17:48.197Z,101728.72
2023-05-24T09:20:14.856Z,101708.28
2023-05-24T09:22:43.108Z,101700.69
2023-05-24T09:25:12.827Z,101724.50
2023-05-24T09:27:39.383Z,101730.31
2023-05-24T09:30:10.498Z,101733.06
2023-05-24T09:32:37.359Z,101732.47
2023-05-24T09:35:09.161Z,101721.56
2023-05-24T09:37:38.574Z,101722.00
2023-05-24T09:40:07.229Z,101718.22
2023-05-24T09:42:33.964Z,101726.16
2023-05-24T09:45:09.578Z,101720.72
2023-05-24T09:47:37.874Z,101715.66
2023-05-24T09:50:07.187Z,101712.41
2023-05-24T09:52:37.292Z,101713.34
2023-05-24T09:55:18.052Z,101710.97
2023-05-24T09:57:45.641Z,101710.22
2023-05-24T10:00:21.742Z,101707.84
2023-05-24T10:03:04.898Z,101695.41
2023-05-24T10:05:32.114Z,101699.31
2023-05-24T10:07:59.243Z,101696.47
2023-05-24T10:10:31.058Z,101707.41
2023-05-24T10:12:58.980Z,101700.25
2023-05-24T10:15:27.049Z,101703.69
2023-05-24T10:17:58.102Z,101688.34
2023-05-24T10:20:25.083Z,101686.28
2023-05-24T10:23:01.953Z,101699.59
2023-05-24T10:25:29.914Z,101707.84
2023-05-24T10:28:04.383Z,101698.56
2023-05-24T10:30:59.484Z,101705.38
2023-05-24T10:33:36.547Z,101703.34
2023-05-24T10:36:13.154Z,101718.31
2023-05-24T10:38:43.689Z,101711.44
2023-05-24T10:41:13.039Z,101718.88
2023-05-24T10:43:40.333Z,101715.75
2023-05-24T10:46:09.708Z,101709.78
2023-05-24T10:48:38.478Z,101708.75
2023-05-24T10:51:34.892Z,101722.00
2023-05-24T10:54:16.875Z,101715.41
2023-05-24T10:56:48.916Z,101724.56
2023-05-24T10:59:38.070Z,101723.69
2023-05-24T11:02:16.474Z,101710.41
2023-05-24T11:04:46.605Z,101706.66
2023-05-24T11:07:17.147Z,101711.78
2023-05-24T11:09:46.899Z,101713.25
2023-05-24T11:12:18.206Z,101711.94
2023-05-24T11:14:52.560Z,101721.56
2023-05-24T11:17:22.462Z,101714.19
2023-05-24T11:19:54.126Z,101716.91
2023-05-24T11:22:22.598Z,101703.03
2023-05-24T11:24:49.265Z,101702.19
2023-05-24T11:27:15.917Z,101712.75
2023-05-24T11:29:47.561Z,101701.34
2023-05-24T11:32:21.283Z,101692.84
2023-05-24T11:34:48.663Z,101705.28
2023-05-24T11:37:17.573Z,101709.22
2023-05-24T11:39:50.475Z,101714.44
2023-05-24T11:42:17.462Z,101702.19
2023-05-24T11:44:44.009Z,101704.25
2023-05-24T11:47:11.898Z,101705.09
2023-05-24T11:49:38.399Z,101698.50
2023-05-24T11:52:05.111Z,101705.50
2023-05-24T11:54:34.988Z,101710.69
2023-05-24T11:57:02.176Z,101702.81
2023-05-24T11:59:29.508Z,101688.31
2023-05-24T12:02:04.523Z,101706.59
2023-05-24T12:04:33.127Z,101698.72
2023-05-24T12:07:00.244Z,101699.28
2023-05-24T12:09:27.726Z,101708.00
2023-05-24T12:11:54.624Z,101703.25
2023-05-24T12:14:40.521Z,101703.03
2023-05-24T12:17:16.022Z,101694.97
2023-05-24T12:19:43.341Z,101687.69
2023-05-24T12:22:10.633Z,101691.41
2023-05-24T12:24:37.906Z,101698.06
2023-05-24T12:27:08.779Z,101693.44
2023-05-24T12:29:41.930Z,101701.72
2023-05-24T12:32:14.622Z,101707.13
2023-05-24T12:34:43.798Z,101701.75
2023-05-24T12:37:12.375Z,101702.81
2023-05-24T12:39:39.827Z,101691.84
2023-05-24T12:42:06.915Z,101699.06
2023-05-24T12:44:38.196Z,101696.41
2023-05-24T12:47:06.899Z,101702.84
2023-05-24T12:49:33.568Z,101696.03
2023-05-24T12:52:01.898Z,101698.72
2023-05-24T12:54:29.283Z,101700.59
2023-05-24T12:56:57.552Z,101701.63
2023-05-24T12:59:25.419Z,101705.16
2023-05-24T13:01:52.492Z,101700.44
2023-05-24T13:04:21.705Z,101696.09
2023-05-24T13:06:49.016Z,101698.16
2023-05-24T13:09:18.097Z,101700.00
2023-05-24T13:11:45.427Z,101694.63
2023-05-24T13:14:12.463Z,101701.06
2023-05-24T13:16:39.060Z,101701.47
2023-05-24T13:19:05.613Z,101713.28
2023-05-24T13:21:32.382Z,101698.16
2023-05-24T13:23:59.340Z,101698.16
2023-05-24T13:26:25.857Z,101711.81
2023-05-24T13:31:22.355Z,101701.25
2023-05-24T13:33:49.229Z,101712.63
2023-05-24T13:36:17.119Z,101695.00
2023-05-24T13:38:43.606Z,101702.06
2023-05-24T13:41:10.085Z,101690.22
2023-05-24T13:43:36.989Z,101698.50
2023-05-24T13:46:03.663Z,101707.22
2023-05-24T13:48:30.449Z,101697.47
2023-05-24T13:50:57.119Z,101702.50
2023-05-24T13:53:23.760Z,101700.66
2023-05-24T13:55:50.392Z,101694.63
2023-05-24T13:58:16.975Z,101699.78
2023-05-24T14:00:44.093Z,101697.72
2023-05-24T14:03:13.034Z,101699.38
2023-05-24T14:05:40.888Z,101693.78
2023-05-24T14:08:07.642Z,101702.69
2023-05-24T14:10:37.432Z,101695.41
2023-05-24T14:13:28.902Z,101696.66
2023-05-24T14:15:52.800Z,101695.19
2023-05-24T14:18:19.352Z,101699.72
2023-05-24T14:20:45.970Z,101693.50
2023-05-24T14:23:12.888Z,101692.69
2023-05-24T14:25:39.562Z,101686.69
2023-05-24T14:28:08.728Z,101678.59
2023-05-24T14:30:37.850Z,101681.06
2023-05-24T14:33:06.418Z,101696.34
2023-05-24T14:35:38.295Z,101650.25
2023-05-24T14:38:06.502Z,101678.88
2023-05-24T14:40:34.276Z,101691.38
2023-05-24T14:43:01.007Z,101670.66
2023-05-24T14:45:27.530Z,101706.19
2023-05-24T14:47:54.131Z,101682.59
2023-05-24T14:50:21.502Z,101686.91
2023-05-24T14:52:48.049Z,101696.25
2023-05-24T14:55:14.736Z,101690.00
2023-05-24T14:57:42.262Z,101692.69
2023-05-24T15:00:10.594Z,101687.66
2023-05-24T15:02:37.485Z,101701.09
2023-05-24T15:05:04.733Z,101661.91
2023-05-24T15:07:31.833Z,101710.00
2023-05-24T15:09:58.510Z,101695.00
2023-05-24T15:12:25.102Z,101719.44
2023-05-24T15:14:51.616Z,101673.97
2023-05-24T15:17:20.942Z,101715.47
2023-05-24T15:19:48.264Z,101670.72
2023-05-24T15:22:14.923Z,101714.91
2023-05-24T15:24:41.433Z,101725.47
2023-05-24T15:27:08.007Z,101702.25
2023-05-24T15:29:34.587Z,101719.41
2023-05-24T15:32:01.571Z,101716.38
2023-05-24T15:34:28.291Z,101728.41
2023-05-24T15:36:54.916Z,101701.63
2023-05-24T15:39:21.623Z,101728.91
2023-05-24T15:41:48.144Z,101725.72
2023-05-24T15:44:14.673Z,101714.88
2023-05-24T15:46:41.408Z,101732.63
2023-05-24T15:49:08.022Z,101725.38
2023-05-24T15:54:06.146Z,101697.44
2023-05-24T15:56:32.858Z,101726.13
2023-05-24T15:58:59.372Z,101705.47
2023-05-24T16:01:26.067Z,101704.13
2023-05-24T16:03:52.659Z,101734.06
2023-05-24T16:06:19.292Z,101731.31
2023-05-24T16:08:45.921Z,101722.75
2023-05-24T16:11:13.444Z,101740.44
2023-05-24T16:13:39.940Z,101726.91
2023-05-24T16:16:06.502Z,101739.41
2023-05-24T16:18:34.714Z,101721.84
2023-05-24T16:21:01.580Z,101728.88
2023-05-24T16:23:28.110Z,101716.16
2023-05-24T16:25:54.635Z,101699.31
2023-05-24T16:28:25.096Z,101718.59
2023-05-24T16:30:55.564Z,101721.69
2023-05-24T16:33:23.398Z,101723.84
2023-05-24T16:35:55.292Z,101705.19
2023-05-24T16:38:23.465Z,101707.47
2023-05-24T16:40:50.880Z,101714.34
2023-05-24T16:43:18.031Z,101713.47
2023-05-24T16:45:44.958Z,101705.69
2023-05-24T16:48:12.182Z,101712.31
2023-05-24T16:50:39.064Z,101709.31
2023-05-24T16:53:06.795Z,101707.59
2023-05-24T16:55:34.467Z,101711.81
2023-05-24T16:58:01.001Z,101709.75
2023-05-24T17:00:27.848Z,101713.09
2023-05-24T17:02:54.790Z,101714.25
2023-05-24T17:05:21.349Z,101715.91
2023-05-24T17:07:47.790Z,101706.72
2023-05-24T17:10:14.327Z,101718.19
2023-05-24T17:12:41.385Z,101715.19
2023-05-24T17:15:08.699Z,101706.41
2023-05-24T17:17:35.303Z,101705.66
2023-05-24T17:20:01.926Z,101708.03
2023-05-24T17:22:28.400Z,101714.59
2023-05-24T17:24:54.963Z,101721.38
2023-05-24T17:27:22.522Z,101710.50
2023-05-24T17:29:49.291Z,101697.19
2023-05-24T17:32:15.735Z,101712.34
2023-05-24T17:34:43.267Z,101715.50
2023-05-24T17:37:09.746Z,101711.72
2023-05-24T17:39:36.324Z,101716.22
2023-05-24T17:42:03.009Z,101719.03
2023-05-24T17:44:29.572Z,101690.28
2023-05-24T17:46:57.440Z,101734.13
2023-05-24T17:49:24.091Z,101721.25
2023-05-24T17:51:50.652Z,101702.69
2023-05-24T17:54:17.145Z,101722.72
2023-05-24T17:56:43.635Z,101719.88
2023-05-24T17:59:10.157Z,101723.47
2023-05-24T18:01:36.696Z,101736.28
2023-05-24T18:04:03.255Z,101710.06
2023-05-24T18:06:29.846Z,101722.63
2023-05-24T18:08:58.009Z,101725.50
2023-05-24T18:11:24.523Z,101722.56
2023-05-24T18:13:52.127Z,101715.69
2023-05-24T18:16:18.709Z,101725.25
2023-05-24T18:18:45.260Z,101734.78
2023-05-24T18:21:13.087Z,101727.56
2023-05-24T18:23:39.640Z,101713.59
2023-05-24T18:26:07.792Z,101729.97
2023-05-24T18:28:37.536Z,101731.91
2023-05-24T18:31:10.908Z,101728.38
2023-05-24T18:33:40.917Z,101728.66
2023-05-24T18:36:07.730Z,101735.88
2023-05-24T18:38:34.776Z,101727.53
2023-05-24T18:41:04.800Z,101720.63
2023-05-24T18:43:32.331Z,101732.44
2023-05-24T18:45:58.862Z,101748.81
2023-05-24T18:48:25.387Z,101741.59
2023-05-24T18:50:52.073Z,101757.53
2023-05-24T18:53:18.557Z,101763.41
2023-05-24T18:55:47.016Z,101749.72
2023-05-24T18:58:14.582Z,101761.94
2023-05-24T19:00:41.282Z,101763.03
2023-05-24T19:03:10.943Z,101760.34
2023-05-24T19:05:38.517Z,101764.41
2023-05-24T19:08:06.728Z,101766.63
2023-05-24T19:10:33.334Z,101768.00
2023-05-24T19:13:01.098Z,101762.53
2023-05-24T19:15:28.156Z,101763.34
2023-05-24T19:17:55.675Z,101763.78
2023-05-24T19:20:22.291Z,101760.16
2023-05-24T19:22:48.979Z,101775.72
2023-05-24T19:25:15.743Z,101779.47
2023-05-24T19:27:57.890Z,101782.22
2023-05-24T19:30:26.159Z,101786.59
2023-05-24T19:32:52.789Z,101799.63
2023-05-24T19:35:19.342Z,101784.00
2023-05-24T19:37:45.894Z,101784.50
2023-05-24T19:40:12.331Z,101788.84
2023-05-24T19:42:38.826Z,101796.59
2023-05-24T19:45:06.113Z,101792.09
2023-05-24T19:47:32.584Z,101795.13
2023-05-24T19:49:59.094Z,101793.00
2023-05-24T19:52:25.536Z,101787.84
2023-05-24T19:54:53.207Z,101770.47
2023-05-24T19:57:19.615Z,101801.75
2023-05-24T19:59:46.108Z,101796.59
2023-05-24T20:02:12.595Z,101800.75
2023-05-24T20:04:41.887Z,101796.59
2023-05-24T20:07:08.941Z,101804.31
2023-05-24T20:09:35.931Z,101806.97
2023-05-24T20:12:03.067Z,101814.34
2023-05-24T20:14:31.515Z,101802.34
2023-05-24T20:16:59.089Z,101814.53
2023-05-24T20:19:27.220Z,101820.03
2023-05-24T20:21:54.142Z,101823.06
2023-05-24T20:24:20.770Z,101834.78
2023-05-24T20:26:47.202Z,101825.44
2023-05-24T20:29:13.668Z,101826.13
2023-05-24T20:31:40.157Z,101834.13
2023-05-24T20:34:06.730Z,101837.81
2023-05-24T20:36:33.372Z,101844.34
2023-05-24T20:38:59.844Z,101831.97
2023-05-24T20:41:26.694Z,101831.78
2023-05-24T20:43:53.301Z,101842.78
2023-05-24T20:46:19.884Z,101840.16
2023-05-24T20:48:46.726Z,101843.84
2023-05-24T20:51:13.263Z,101822.97
2023-05-24T20:53:40.339Z,101844.66
2023-05-24T20:56:07.261Z,101835.00
2023-05-24T20:58:33.829Z,101830.16
2023-05-24T21:01:00.524Z,101839.38
2023-05-24T21:03:27.117Z,101846.69
2023-05-24T21:05:53.797Z,101812.63
2023-05-24T21:08:20.377Z,101842.88
2023-05-24T21:10:46.958Z,101842.84
2023-05-24T21:13:13.368Z,101850.88
2023-05-24T21:15:39.773Z,101848.19
2023-05-24T21:18:06.483Z,101849.72
2023-05-24T21:20:33.133Z,101847.38
2023-05-24T21:23:00.536Z,101850.19
2023-05-24T21:25:27.139Z,101850.88
2023-05-24T21:27:53.594Z,101849.88
2023-05-24T21:30:20.053Z,101845.03
2023-05-24T21:32:46.652Z,101852.03
2023-05-24T21:35:13.338Z,101864.25
2023-05-24T21:37:39.958Z,101852.53
2023-05-24T21:40:06.966Z,101860.22
2023-05-24T21:42:33.448Z,101864.91
2023-05-24T21:44:59.943Z,101863.56
2023-05-24T21:47:26.578Z,101871.75
2023-05-24T21:49:54.895Z,101867.72
2023-05-24T21:52:21.804Z,101867.72
2023-05-24T21:54:48.304Z,101881.59
2023-05-24T21:57:14.741Z,101881.75
2023-05-24T21:59:41.308Z,101876.75
2023-05-24T22:02:07.959Z,101883.56
2023-05-24T22:04:34.559Z,101884.41
2023-05-24T22:07:01.088Z,101884.09
2023-05-24T22:09:27.532Z,101889.41
2023-05-24T22:11:54.047Z,101890.41
2023-05-24T22:14:20.568Z,101892.59
2023-05-24T22:16:47.103Z,101893.41
2023-05-24T22:19:16.492Z,101894.09
2023-05-24T22:21:43.690Z,101897.94
2023-05-24T22:24:10.688Z,101893.75
2023-05-24T22:26:37.291Z,101892.91
2023-05-24T22:29:04.318Z,101908.63
2023-05-24T22:31:33.428Z,101906.06
2023-05-24T22:34:02.334Z,101905.25
2023-05-24T22:36:33.006Z,101907.59
2023-05-24T22:39:00.356Z,101908.63
2023-05-24T22:41:26.982Z,101910.78
2023-05-24T22:43:54.267Z,101911.75
2023-05-24T22:46:22.278Z,101911.91
2023-05-24T22:48:52.476Z,101911.56
2023-05-24T22:51:20.175Z,101915.72
2023-05-24T22:53:47.645Z,101917.56
2023-05-24T22:56:14.084Z,101911.56
2023-05-24T22:58:40.682Z,101913.38
2023-05-24T23:01:07.204Z,101920.06
2023-05-24T23:03:33.692Z,101915.25
2023-05-24T23:06:04.224Z,101910.53
2023-05-24T23:08:32.222Z,101912.88
2023-05-24T23:11:01.796Z,101911.19
2023-05-24T23:13:33.804Z,101912.00
2023-05-24T23:16:00.497Z,101909.66
2023-05-24T23:18:27.982Z,101904.66
2023-05-24T23:20:56.273Z,101915.69
2023-05-24T23:23:24.776Z,101909.69
2023-05-24T23:25:51.595Z,101896.81
2023-05-24T23:28:18.269Z,101893.47
2023-05-24T23:30:45.213Z,101897.00
2023-05-24T23:33:11.635Z,101891.47
2023-05-24T23:35:39.651Z,101884.94
2023-05-24T23:38:06.558Z,101886.31
2023-05-24T23:40:33.817Z,101893.47
2023-05-24T23:43:00.629Z,101892.16
2023-05-24T23:45:27.134Z,101884.78
2023-05-24T23:47:53.770Z,101887.59
2023-05-24T23:50:22.559Z,101882.28
2023-05-24T23:52:49.772Z,101889.94
2023-05-24T23:55:16.399Z,101887.44
2023-05-24T23:57:42.996Z,101891.59
